createdAt,value
2023-03-11T00:00:39.667Z,10.13
2023-03-11T00:03:08.659Z,9.02
2023-03-11T00:05:42.037Z,9.68
2023-03-11T00:08:14.163Z,10.32
2023-03-11T00:10:43.300Z,6.93
2023-03-11T00:13:14.858Z,9.63
2023-03-11T00:15:48.791Z,9.15
2023-03-11T00:18:16.292Z,11.50
2023-03-11T00:20:48.225Z,6.22
2023-03-11T00:23:15.689Z,9.88
2023-03-11T00:25:46.161Z,8.65
2023-03-11T00:28:14.173Z,7.60
2023-03-11T00:30:45.820Z,7.47
2023-03-11T00:33:16.301Z,8.45
2023-03-11T00:35:43.981Z,8.55
2023-03-11T00:38:15.020Z,10.77
2023-03-11T00:40:43.225Z,6.25
2023-03-11T00:43:15.559Z,11.15
2023-03-11T00:45:42.515Z,7.43
2023-03-11T00:48:13.272Z,9.27
2023-03-11T00:50:43.218Z,11.05
2023-03-11T00:53:10.440Z,8.48
2023-03-11T00:55:39.276Z,22.63
2023-03-11T00:58:06.984Z,12.90
2023-03-11T01:00:34.350Z,8.70
2023-03-11T01:03:01.492Z,8.90
2023-03-11T01:05:31.178Z,7.13
2023-03-11T01:08:00.670Z,6.07
2023-03-11T01:10:29.775Z,8.05
2023-03-11T01:12:58.900Z,13.43
2023-03-11T01:15:36.814Z,12.35
2023-03-11T01:18:07.441Z,15.55
2023-03-11T01:20:38.111Z,7.32
2023-03-11T01:23:08.004Z,8.15
2023-03-11T01:25:35.681Z,12.60
2023-03-11T01:28:02.464Z,8.85
2023-03-11T01:30:31.628Z,13.77
2023-03-11T01:32:58.646Z,9.50
2023-03-11T01:35:27.244Z,8.05
2023-03-11T01:37:57.615Z,7.97
2023-03-11T01:40:32.304Z,6.50
2023-03-11T01:43:00.428Z,9.83
2023-03-11T01:46:02.511Z,7.07
2023-03-11T01:48:31.861Z,4.95
2023-03-11T01:50:59.160Z,7.85
2023-03-11T01:53:28.484Z,8.90
2023-03-11T01:56:00.143Z,10.60
2023-03-11T01:58:31.364Z,8.93
2023-03-11T02:01:02.898Z,9.10
2023-03-11T02:03:36.639Z,8.32
2023-03-11T02:06:12.674Z,6.35
2023-03-11T02:08:41.433Z,11.63
2023-03-11T02:11:11.552Z,7.95
2023-03-11T02:13:40.744Z,7.03
2023-03-11T02:16:10.538Z,4.90
2023-03-11T02:18:37.846Z,11.65
2023-03-11T02:21:34.251Z,6.47
2023-03-11T02:24:19.247Z,5.85
2023-03-11T02:27:00.090Z,9.23
2023-03-11T02:29:28.672Z,8.70
2023-03-11T02:32:01.433Z,13.80
2023-03-11T02:34:32.722Z,11.52
2023-03-11T02:37:05.158Z,6.93
2023-03-11T02:39:41.637Z,7.40
2023-03-11T02:42:13.867Z,8.73
2023-03-11T02:44:43.868Z,7.07
2023-03-11T02:47:10.990Z,7.43
2023-03-11T02:49:40.294Z,8.38
2023-03-11T02:52:07.017Z,11.00
2023-03-11T02:54:33.834Z,8.93
2023-03-11T02:57:02.737Z,5.78
2023-03-11T02:59:31.661Z,15.77
2023-03-11T03:01:58.615Z,7.50
2023-03-11T03:04:27.451Z,5.55
2023-03-11T03:06:54.105Z,6.25
2023-03-11T03:09:20.757Z,8.18
2023-03-11T03:11:49.621Z,10.57
2023-03-11T03:14:16.611Z,10.75
2023-03-11T03:16:45.475Z,9.75
2023-03-11T03:19:12.173Z,8.80
2023-03-11T03:21:38.785Z,4.82
2023-03-11T03:24:05.765Z,7.60
2023-03-11T03:26:35.549Z,8.73
2023-03-11T03:29:05.376Z,4.78
2023-03-11T03:31:32.291Z,7.82
2023-03-11T03:34:01.260Z,4.40
2023-03-11T03:36:30.440Z,7.45
2023-03-11T03:38:58.865Z,7.63
2023-03-11T03:41:28.497Z,8.98
2023-03-11T03:43:55.250Z,12.02
2023-03-11T03:46:27.451Z,10.20
2023-03-11T03:48:54.114Z,12.95
2023-03-11T03:51:25.371Z,5.57
2023-03-11T03:53:54.283Z,6.93
2023-03-11T03:56:20.900Z,7.78
2023-03-11T03:58:47.569Z,8.35
2023-03-11T04:01:16.350Z,11.82
2023-03-11T04:03:43.123Z,9.07
2023-03-11T04:06:17.781Z,9.27
2023-03-11T04:08:44.770Z,9.52
2023-03-11T04:11:11.970Z,7.13
2023-03-11T04:13:41.297Z,8.25
2023-03-11T04:16:08.413Z,12.35
2023-03-11T04:18:35.154Z,11.88
2023-03-11T04:21:08.615Z,14.00
2023-03-11T04:23:38.011Z,8.05
2023-03-11T04:26:05.120Z,10.20
2023-03-11T04:28:32.156Z,8.15
2023-03-11T04:30:58.893Z,10.60
2023-03-11T04:33:30.574Z,6.63
2023-03-11T04:36:00.054Z,9.07
2023-03-11T04:38:29.932Z,7.18
2023-03-11T04:41:06.469Z,5.70
2023-03-11T04:43:33.526Z,7.57
2023-03-11T04:46:00.219Z,4.85
2023-03-11T04:48:29.072Z,9.32
2023-03-11T04:50:58.052Z,9.85
2023-03-11T04:53:24.696Z,4.85
2023-03-11T04:55:53.852Z,9.55
2023-03-11T04:58:20.937Z,6.57
2023-03-11T05:00:52.064Z,6.13
2023-03-11T05:03:21.296Z,7.30
2023-03-11T05:05:52.806Z,8.02
2023-03-11T05:08:19.474Z,7.35
2023-03-11T05:10:46.847Z,6.60
2023-03-11T05:13:15.939Z,5.95
2023-03-11T05:15:45.799Z,7.57
2023-03-11T05:18:12.766Z,7.65
2023-03-11T05:20:41.797Z,11.13
2023-03-11T05:23:10.595Z,7.40
2023-03-11T05:25:37.513Z,9.65
2023-03-11T05:28:04.525Z,5.22
2023-03-11T05:30:31.226Z,7.93
2023-03-11T05:32:57.996Z,7.35
2023-03-11T05:35:26.953Z,7.55
2023-03-11T05:37:54.810Z,6.95
2023-03-11T05:40:24.427Z,8.45
2023-03-11T05:42:51.877Z,5.70
2023-03-11T05:45:18.560Z,6.95
2023-03-11T05:47:50.122Z,7.40
2023-03-11T05:50:16.842Z,6.00
2023-03-11T05:52:45.683Z,8.52
2023-03-11T05:55:12.531Z,8.52
2023-03-11T05:57:42.687Z,6.68
2023-03-11T06:00:13.103Z,6.13
2023-03-11T06:02:40.719Z,10.52
2023-03-11T06:05:08.858Z,9.70
2023-03-11T06:07:37.129Z,8.68
2023-03-11T06:10:04.986Z,9.38
2023-03-11T06:12:39.397Z,5.97
2023-03-11T06:15:09.631Z,7.20
2023-03-11T06:17:36.437Z,7.53
2023-03-11T06:20:05.719Z,6.78
2023-03-11T06:22:34.601Z,9.57
2023-03-11T06:25:03.676Z,10.90
2023-03-11T06:27:32.616Z,9.52
2023-03-11T06:29:59.308Z,7.55
2023-03-11T06:32:29.606Z,10.73
2023-03-11T06:34:58.679Z,10.95
2023-03-11T06:37:25.870Z,8.57
2023-03-11T06:39:53.539Z,10.10
2023-03-11T06:42:23.897Z,10.98
2023-03-11T06:44:53.137Z,9.88
2023-03-11T06:47:19.786Z,6.88
2023-03-11T06:49:55.145Z,6.90
2023-03-11T06:52:24.353Z,7.88
2023-03-11T06:54:53.552Z,12.80
2023-03-11T06:57:22.700Z,15.38
2023-03-11T06:59:49.553Z,8.20
2023-03-11T07:02:16.542Z,9.57
2023-03-11T07:04:43.211Z,7.00
2023-03-11T07:07:12.041Z,10.32
2023-03-11T07:09:41.093Z,11.70
2023-03-11T07:12:08.053Z,9.93
2023-03-11T07:14:34.758Z,5.95
2023-03-11T07:17:04.528Z,8.13
2023-03-11T07:19:31.256Z,10.52
2023-03-11T07:21:57.960Z,7.07
2023-03-11T07:24:24.584Z,10.15
2023-03-11T07:26:56.038Z,13.48
2023-03-11T07:29:24.898Z,10.13
2023-03-11T07:31:56.231Z,11.45
2023-03-11T07:34:25.274Z,12.98
2023-03-11T07:36:51.895Z,10.10
2023-03-11T07:39:19.072Z,7.78
2023-03-11T07:41:48.665Z,16.77
2023-03-11T07:44:17.049Z,12.25
2023-03-11T07:46:48.596Z,13.40
2023-03-11T07:49:15.270Z,9.50
2023-03-11T07:51:44.770Z,8.80
2023-03-11T07:54:14.433Z,7.40
2023-03-11T07:56:41.408Z,7.00
2023-03-11T07:59:10.221Z,9.65
2023-03-11T08:01:40.505Z,12.40
2023-03-11T08:04:14.526Z,9.18
2023-03-11T08:06:46.055Z,11.73
2023-03-11T08:09:15.357Z,7.78
2023-03-11T08:11:42.283Z,8.95
2023-03-11T08:14:09.229Z,8.73
2023-03-11T08:16:35.950Z,10.07
2023-03-11T08:19:03.079Z,7.65
2023-03-11T08:21:32.054Z,13.60
2023-03-11T08:24:00.548Z,9.15
2023-03-11T08:26:30.068Z,8.60
2023-03-11T08:28:57.953Z,8.07
2023-03-11T08:31:31.097Z,11.52
2023-03-11T08:34:01.065Z,9.27
2023-03-11T08:36:30.138Z,10.13
2023-03-11T08:38:56.948Z,7.25
2023-03-11T08:41:24.053Z,12.50
2023-03-11T08:43:55.732Z,9.63
2023-03-11T08:46:26.538Z,6.50
2023-03-11T08:48:54.127Z,10.95
2023-03-11T08:51:23.988Z,7.70
2023-03-11T08:53:54.445Z,8.68
2023-03-11T08:56:23.648Z,7.40
2023-03-11T08:58:52.869Z,6.60
2023-03-11T09:01:20.360Z,10.07
2023-03-11T09:03:52.416Z,6.93
2023-03-11T09:06:19.242Z,6.75
2023-03-11T09:08:46.897Z,8.48
2023-03-11T09:11:16.791Z,9.95
2023-03-11T09:13:48.481Z,7.47
2023-03-11T09:16:24.521Z,9.38
2023-03-11T09:18:53.622Z,10.35
2023-03-11T09:21:20.731Z,6.85
2023-03-11T09:23:52.508Z,14.73
2023-03-11T09:26:23.791Z,8.48
2023-03-11T09:28:50.431Z,7.15
2023-03-11T09:31:17.964Z,3.33
2023-03-11T09:33:47.635Z,5.20
2023-03-11T09:36:19.580Z,3.78
2023-03-11T09:38:46.709Z,4.05
2023-03-11T09:41:25.964Z,5.03
2023-03-11T09:44:12.267Z,3.50
2023-03-11T09:46:38.913Z,8.27
2023-03-11T09:49:33.639Z,5.95
2023-03-11T09:52:10.708Z,5.35
2023-03-11T09:54:40.961Z,3.88
2023-03-11T09:57:12.622Z,8.25
2023-03-11T09:59:42.687Z,3.92
2023-03-11T10:02:15.869Z,6.63
2023-03-11T10:04:51.579Z,4.38
2023-03-11T10:09:52.782Z,6.03
2023-03-11T10:12:25.801Z,5.13
2023-03-11T10:15:17.642Z,2.78
2023-03-11T10:18:09.471Z,9.60
2023-03-11T10:21:01.441Z,4.10
2023-03-11T10:23:53.038Z,3.47
2023-03-11T10:26:32.783Z,4.45
2023-03-11T10:28:59.394Z,4.05
2023-03-11T10:31:38.010Z,6.75
2023-03-11T10:34:13.900Z,4.10
2023-03-11T10:37:10.297Z,3.85
2023-03-11T10:39:40.727Z,1.92
2023-03-11T10:42:14.199Z,3.85
2023-03-11T10:44:42.998Z,3.45
2023-03-11T10:47:24.317Z,5.10
2023-03-11T10:49:52.541Z,10.55
2023-03-11T10:52:20.015Z,5.88
2023-03-11T10:54:49.124Z,7.80
2023-03-11T10:57:25.484Z,3.13
2023-03-11T10:59:56.231Z,5.15
2023-03-11T11:02:48.783Z,3.72
2023-03-11T11:05:18.197Z,4.57
2023-03-11T11:07:53.034Z,5.13
2023-03-11T11:10:23.430Z,4.75
2023-03-11T11:13:00.794Z,8.13
2023-03-11T11:15:36.384Z,3.63
2023-03-11T11:18:23.287Z,3.97
2023-03-11T11:21:08.551Z,3.97
2023-03-11T11:23:35.183Z,3.23
2023-03-11T11:26:13.639Z,3.72
2023-03-11T11:28:40.459Z,5.88
2023-03-11T11:31:26.132Z,4.50
2023-03-11T11:33:56.942Z,5.30
2023-03-11T11:36:29.494Z,4.72
2023-03-11T11:38:56.925Z,6.28
2023-03-11T11:41:26.011Z,3.80
2023-03-11T11:43:53.086Z,4.63
2023-03-11T11:46:31.125Z,4.65
2023-03-11T11:49:09.573Z,2.75
2023-03-11T11:51:42.570Z,4.00
2023-03-11T11:54:18.604Z,5.55
2023-03-11T11:56:48.050Z,1.83
2023-03-11T11:59:19.852Z,4.28
2023-03-11T12:01:58.202Z,3.65
2023-03-11T12:04:44.468Z,3.38
2023-03-11T12:07:32.287Z,6.93
2023-03-11T12:10:23.465Z,7.18
2023-03-11T12:13:40.983Z,3.88
2023-03-11T12:16:29.108Z,4.70
2023-03-11T12:19:07.366Z,2.42
2023-03-11T12:21:46.205Z,5.13
2023-03-11T12:24:18.632Z,4.65
2023-03-11T12:26:52.166Z,6.55
2023-03-11T12:29:34.010Z,4.53
2023-03-11T12:32:02.407Z,2.95
2023-03-11T12:34:33.519Z,6.70
2023-03-11T12:37:04.227Z,5.35
2023-03-11T12:39:33.857Z,4.70
2023-03-11T12:42:18.360Z,3.90
2023-03-11T12:44:46.467Z,4.43
2023-03-11T12:47:28.751Z,5.43
2023-03-11T12:50:18.759Z,4.03
2023-03-11T12:52:55.290Z,5.40
2023-03-11T12:55:32.041Z,4.15
2023-03-11T12:58:07.157Z,5.50
2023-03-11T13:01:09.550Z,4.82
2023-03-11T13:03:51.225Z,7.72
2023-03-11T13:06:45.852Z,3.92
2023-03-11T13:09:18.325Z,7.60
2023-03-11T13:11:51.334Z,6.35
2023-03-11T13:14:24.024Z,6.05
2023-03-11T13:16:50.924Z,3.63
2023-03-11T13:19:46.848Z,5.95
2023-03-11T13:22:43.112Z,4.05
2023-03-11T13:25:37.539Z,8.27
2023-03-11T13:28:32.059Z,5.55
2023-03-11T13:31:07.018Z,6.20
2023-03-11T13:33:51.251Z,3.65
2023-03-11T13:36:35.933Z,10.63
2023-03-11T13:39:12.481Z,6.38
2023-03-11T13:41:46.498Z,8.63
2023-03-11T13:44:26.187Z,9.30
2023-03-11T13:46:59.954Z,8.57
2023-03-11T13:49:37.083Z,8.48
2023-03-11T13:52:12.578Z,4.80
2023-03-11T13:54:51.628Z,5.63
2023-03-11T13:57:26.285Z,6.63
2023-03-11T14:00:05.797Z,4.63
2023-03-11T14:02:34.560Z,6.25
2023-03-11T14:05:09.281Z,5.40
2023-03-11T14:07:38.568Z,5.87
2023-03-11T14:10:18.804Z,4.75
2023-03-11T14:12:46.263Z,5.90
2023-03-11T14:15:26.842Z,4.95
2023-03-11T14:18:14.333Z,6.35
2023-03-11T14:20:44.073Z,6.68
2023-03-11T14:23:19.076Z,4.50
2023-03-11T14:25:46.008Z,5.70
2023-03-11T14:28:22.625Z,3.28
2023-03-11T14:31:00.449Z,5.57
2023-03-11T14:33:27.662Z,7.40
2023-03-11T14:35:59.868Z,5.85
2023-03-11T14:38:34.585Z,7.25
2023-03-11T14:41:06.351Z,5.47
2023-03-11T14:43:37.567Z,6.57
2023-03-11T14:46:09.705Z,3.78
2023-03-11T14:48:45.848Z,3.08
2023-03-11T14:51:22.244Z,3.58
2023-03-11T14:54:08.307Z,5.80
2023-03-11T14:59:15.588Z,6.43
2023-03-11T15:01:44.317Z,4.55
2023-03-11T15:04:22.881Z,5.10
2023-03-11T15:06:50.547Z,4.97
2023-03-11T15:09:22.854Z,12.10
2023-03-11T15:11:55.359Z,7.40
2023-03-11T15:14:24.837Z,5.20
2023-03-11T15:16:52.764Z,6.70
2023-03-11T15:19:28.583Z,4.18
2023-03-11T15:22:06.079Z,4.93
2023-03-11T15:24:36.257Z,4.13
2023-03-11T15:27:06.401Z,4.80
2023-03-11T15:29:34.824Z,6.82
2023-03-11T15:32:25.480Z,4.82
2023-03-11T15:35:13.008Z,6.55
2023-03-11T15:37:43.877Z,6.68
2023-03-11T15:40:35.236Z,5.70
2023-03-11T15:43:14.994Z,5.88
2023-03-11T15:45:46.612Z,6.22
2023-03-11T15:48:16.040Z,4.13
2023-03-11T15:50:53.344Z,3.92
2023-03-11T15:53:21.659Z,7.68
2023-03-11T15:55:51.682Z,5.15
2023-03-11T15:58:22.400Z,5.07
2023-03-11T16:00:57.666Z,8.65
2023-03-11T16:03:24.703Z,6.30
2023-03-11T16:05:51.468Z,7.63
2023-03-11T16:08:18.180Z,8.07
2023-03-11T16:10:47.324Z,6.50
2023-03-11T16:13:17.756Z,4.20
2023-03-11T16:15:47.171Z,7.47
2023-03-11T16:18:14.116Z,4.03
2023-03-11T16:20:52.993Z,4.40
2023-03-11T16:23:23.665Z,5.15
2023-03-11T16:25:51.160Z,10.20
2023-03-11T16:28:20.333Z,5.50
2023-03-11T16:30:52.610Z,7.97
2023-03-11T16:33:21.796Z,7.75
2023-03-11T16:35:52.906Z,8.38
2023-03-11T16:38:22.941Z,7.10
2023-03-11T16:41:01.070Z,6.88
2023-03-11T16:43:32.008Z,5.30
2023-03-11T16:45:58.649Z,8.23
2023-03-11T16:48:25.644Z,9.52
2023-03-11T16:50:53.364Z,5.15
2023-03-11T16:53:22.457Z,6.18
2023-03-11T16:55:51.983Z,7.55
2023-03-11T16:58:19.229Z,4.30
2023-03-11T17:00:46.098Z,4.63
2023-03-11T17:03:14.170Z,5.07
2023-03-11T17:05:44.284Z,3.28
2023-03-11T17:08:11.099Z,4.50
2023-03-11T17:10:42.640Z,4.28
2023-03-11T17:13:11.497Z,6.05
2023-03-11T17:15:38.487Z,6.65
2023-03-11T17:18:05.722Z,7.03
2023-03-11T17:20:33.941Z,5.72
2023-03-11T17:23:01.097Z,5.80
2023-03-11T17:25:27.718Z,5.35
2023-03-11T17:27:54.363Z,6.88
2023-03-11T17:30:36.368Z,7.68
2023-03-11T17:33:03.720Z,9.55
2023-03-11T17:35:32.849Z,7.15
2023-03-11T17:37:59.494Z,5.45
2023-03-11T17:40:30.369Z,6.60
2023-03-11T17:42:57.051Z,51.53
2023-03-11T17:45:28.469Z,78.45
2023-03-11T17:47:55.150Z,55.95
2023-03-11T17:50:21.930Z,47.50
2023-03-11T17:52:50.801Z,40.15
2023-03-11T17:55:19.720Z,33.60
2023-03-11T17:57:46.380Z,31.27
2023-03-11T18:00:14.725Z,23.10
2023-03-11T18:02:41.817Z,20.88
2023-03-11T18:05:11.213Z,14.27
2023-03-11T18:07:43.625Z,14.98
2023-03-11T18:10:11.917Z,11.88
2023-03-11T18:12:44.865Z,10.95
2023-03-11T18:15:18.888Z,12.13
2023-03-11T18:17:47.072Z,8.45
2023-03-11T18:20:16.461Z,11.88
2023-03-11T18:22:46.793Z,11.13
2023-03-11T18:25:17.177Z,10.70
2023-03-11T18:27:46.314Z,8.98
2023-03-11T18:30:15.242Z,10.38
2023-03-11T18:32:42.016Z,12.45
2023-03-11T18:35:09.192Z,10.43
2023-03-11T18:37:38.211Z,11.02
2023-03-11T18:40:06.878Z,9.15
2023-03-11T18:42:33.800Z,13.52
2023-03-11T18:45:00.523Z,12.40
2023-03-11T18:47:27.177Z,10.80
2023-03-11T18:49:54.796Z,13.77
2023-03-11T18:52:26.167Z,10.02
2023-03-11T18:54:55.100Z,8.10
2023-03-11T18:57:21.796Z,9.13
2023-03-11T18:59:51.977Z,11.75
2023-03-11T19:02:18.815Z,17.02
2023-03-11T19:04:48.017Z,15.50
2023-03-11T19:07:17.227Z,27.85
2023-03-11T19:09:43.889Z,33.45
2023-03-11T19:12:15.136Z,26.33
2023-03-11T19:14:41.887Z,24.27
2023-03-11T19:17:08.543Z,22.42
2023-03-11T19:19:37.746Z,19.85
2023-03-11T19:22:05.574Z,16.48
2023-03-11T19:24:32.213Z,15.82
2023-03-11T19:27:01.106Z,18.48
2023-03-11T19:29:29.055Z,18.00
2023-03-11T19:31:57.930Z,14.75
2023-03-11T19:34:25.357Z,20.15
2023-03-11T19:36:51.995Z,14.07
2023-03-11T19:39:18.721Z,14.80
2023-03-11T19:41:47.989Z,13.60
2023-03-11T19:44:14.691Z,13.15
2023-03-11T19:46:41.437Z,14.65
2023-03-11T19:49:08.128Z,17.95
2023-03-11T19:51:49.165Z,20.30
2023-03-11T19:54:16.826Z,19.00
2023-03-11T19:56:46.322Z,43.97
2023-03-11T19:59:13.037Z,42.95
2023-03-11T20:01:39.943Z,42.22
2023-03-11T20:04:06.739Z,38.65
2023-03-11T20:06:36.057Z,31.48
2023-03-11T20:09:02.777Z,37.33
2023-03-11T20:11:29.464Z,44.75
2023-03-11T20:13:58.397Z,45.47
2023-03-11T20:16:25.062Z,47.85
2023-03-11T20:18:54.222Z,49.38
2023-03-11T20:21:23.287Z,44.53
2023-03-11T20:23:50.220Z,47.35
2023-03-11T20:26:20.351Z,42.72
2023-03-11T20:28:49.759Z,55.50
2023-03-11T20:31:20.855Z,53.38
2023-03-11T20:33:49.317Z,46.22
2023-03-11T20:36:20.868Z,47.97
2023-03-11T20:38:48.987Z,47.72
2023-03-11T20:41:17.883Z,46.55
2023-03-11T20:43:47.452Z,45.00
2023-03-11T20:46:16.387Z,34.85
2023-03-11T20:48:43.092Z,34.95
2023-03-11T20:51:13.784Z,34.42
2023-03-11T20:53:40.843Z,27.33
2023-03-11T20:56:16.143Z,24.95
2023-03-11T20:58:45.669Z,24.92
2023-03-11T21:01:20.966Z,22.48
2023-03-11T21:03:53.920Z,20.67
2023-03-11T21:06:27.138Z,20.90
2023-03-11T21:08:57.617Z,20.95
2023-03-11T21:11:25.719Z,23.35
2023-03-11T21:13:52.789Z,18.98
2023-03-11T21:16:22.946Z,21.88
2023-03-11T21:18:50.003Z,22.58
2023-03-11T21:21:18.010Z,19.48
2023-03-11T21:23:45.752Z,18.42
2023-03-11T21:26:14.345Z,18.83
2023-03-11T21:28:46.412Z,20.70
2023-03-11T21:31:16.973Z,25.88
2023-03-11T21:33:44.058Z,23.75
2023-03-11T21:36:17.371Z,22.98
2023-03-11T21:38:44.568Z,21.08
2023-03-11T21:41:18.199Z,21.67
2023-03-11T21:43:46.126Z,27.23
2023-03-11T21:46:16.985Z,18.80
2023-03-11T21:48:46.120Z,19.13
2023-03-11T21:51:16.894Z,16.45
2023-03-11T21:53:43.898Z,21.80
2023-03-11T21:56:10.867Z,14.93
2023-03-11T21:58:39.777Z,18.92
2023-03-11T22:01:09.846Z,17.52
2023-03-11T22:03:37.478Z,18.95
2023-03-11T22:06:08.235Z,23.33
2023-03-11T22:08:35.848Z,19.30
2023-03-11T22:11:03.854Z,18.02
2023-03-11T22:13:30.676Z,19.02
2023-03-11T22:15:57.455Z,22.08
2023-03-11T22:18:24.325Z,15.88
2023-03-11T22:20:51.171Z,15.45
2023-03-11T22:23:17.824Z,17.23
2023-03-11T22:25:49.278Z,19.02
2023-03-11T22:28:18.112Z,17.05
2023-03-11T22:30:44.784Z,19.95
2023-03-11T22:33:11.476Z,17.95
2023-03-11T22:35:42.864Z,16.95
2023-03-11T22:38:11.789Z,19.73
2023-03-11T22:40:41.834Z,17.02
2023-03-11T22:43:13.165Z,19.90
2023-03-11T22:45:39.925Z,18.58
2023-03-11T22:48:10.985Z,18.20
2023-03-11T22:50:41.663Z,20.20
2023-03-11T22:53:08.845Z,18.45
2023-03-11T22:55:42.557Z,15.38
2023-03-11T22:58:10.271Z,15.38
2023-03-11T23:00:37.166Z,14.20
2023-03-11T23:03:09.124Z,15.30
2023-03-11T23:05:45.875Z,23.05
2023-03-11T23:08:16.109Z,16.90
2023-03-11T23:10:46.085Z,17.55
2023-03-11T23:13:13.224Z,15.80
2023-03-11T23:15:47.565Z,17.17
2023-03-11T23:18:18.406Z,17.70
2023-03-11T23:20:45.506Z,16.67
2023-03-11T23:23:12.855Z,19.85
2023-03-11T23:25:40.512Z,15.35
2023-03-11T23:28:09.633Z,20.95
2023-03-11T23:30:39.122Z,14.32
2023-03-11T23:33:08.195Z,21.20
2023-03-11T23:35:41.677Z,14.13
2023-03-11T23:38:12.984Z,14.70
2023-03-11T23:40:43.044Z,13.05
2023-03-11T23:43:12.030Z,16.30
2023-03-11T23:45:38.713Z,15.98
2023-03-11T23:48:07.958Z,15.80
2023-03-11T23:50:34.637Z,14.45
2023-03-11T23:53:01.283Z,16.27
2023-03-11T23:55:30.074Z,13.77
2023-03-11T23:58:01.381Z,14.30
